Elwood, IN

5:31 PM EST on November 23, 2014 (GMT -0500)
Marion Municipal | Change Station
CLOSE
Current Station
Airport
Location: Marion,
Elevation: 856 ft
Nearby Weather Stations
Active Advisory: Wind Advisory

Elev 856 ft 40.49 °N, 85.68 °W | Updated 16 minutes ago

Rain
Rain
51 °F
Feels Like 51 °F
N
13
Wind Variable Wind from SE

Today
High -- | Low -- °F
--% Chance of Precip.
Yesterday
High -- | Low -- °F
Precip. -- in
7:38 AM 5:21 PM
New Moon, 2% visible
Pressure 29.49 in
Visibility 3.0 miles
Clouds Mostly Cloudy 800 ft
Mostly Cloudy 1100 ft
Overcast 4900 ft
Dew Point 50 °F
Humidity 96%
Rainfall 0.95 in
Snow Depth Not available.
UV 0 out of 12
Pollen .10 out of 12
Air Quality Not available.
Flu Activity Not available.
METAR KMZZ 232215Z AUTO 14011KT 3SM RA BKN008 BKN011 OVC049 11/10 A2949 RMK AO2 P0003 T01050099

More Conditions Fewer Conditions

Pressure 29.49 in
Visibility 3.0 miles
Clouds Mostly Cloudy 800 ft
Mostly Cloudy 1100 ft
Overcast 4900 ft
Dew Point 50 °F
Humidity 96%
Rainfall 0.95 in
Snow Depth Not available.
UV 0 out of 12
Pollen .10 out of 12
Air Quality Not available.
Flu Activity Not available.
METAR KMZZ 232215Z AUTO 14011KT 3SM RA BKN008 BKN011 OVC049 11/10 A2949 RMK AO2 P0003 T01050099

More Conditions Fewer Conditions

10-Day Weather Forecast

Almanac

Astronomy

Nov. 23, 2014 Rise Set
Actual Time
Civil Twilight
Nautical Twilight
Astronomical Twilight
Moon
Length of Visible Light
Length of Day
Tomorrow will be .
, % of the Moon is Illuminated

Today's Extremes

State Highs State Lows

Community

WunderPhotos

Upload Photos

1,773,188 photos uploaded!

WunderBlogs® & News

Nearby

Air Quality

  Air Quality AQ Index Pollutant
Not available.

Snow Depth

Station Depth Elevation

Earthquake Activity

City Distance Mag. Time & Date
Minimum magnitude displayed is 2.5.

Coastal Water Temperatures

Place Temperature

Nearby Weather Stations